createdAt,value
2023-05-16T00:01:51.427Z,3.40
2023-05-16T00:04:24.124Z,2.83
2023-05-16T00:06:54.601Z,2.75
2023-05-16T00:09:24.434Z,2.90
2023-05-16T00:11:55.604Z,2.55
2023-05-16T00:14:28.046Z,3.45
2023-05-16T00:17:00.670Z,3.15
2023-05-16T00:19:31.910Z,3.60
2023-05-16T00:22:02.744Z,4.07
2023-05-16T00:24:33.708Z,3.83
2023-05-16T00:27:05.748Z,4.15
2023-05-16T00:29:39.339Z,3.70
2023-05-16T00:32:10.749Z,4.03
2023-05-16T00:34:44.298Z,3.95
2023-05-16T00:37:17.114Z,4.60
2023-05-16T00:39:47.189Z,3.50
2023-05-16T00:44:48.165Z,2.95
2023-05-16T00:47:19.275Z,4.13
2023-05-16T00:49:51.494Z,3.50
2023-05-16T00:52:21.682Z,3.97
2023-05-16T00:54:53.414Z,4.68
2023-05-16T00:57:24.945Z,3.40
2023-05-16T00:59:56.865Z,4.40
2023-05-16T01:02:29.704Z,3.13
2023-05-16T01:05:00.594Z,3.50
2023-05-16T01:07:32.276Z,3.40
2023-05-16T01:10:04.901Z,4.40
2023-05-16T01:12:50.501Z,4.50
2023-05-16T01:15:31.469Z,4.60
2023-05-16T01:18:22.410Z,4.18
2023-05-16T01:21:20.965Z,5.00
2023-05-16T01:24:05.164Z,3.70
2023-05-16T01:26:38.185Z,3.97
2023-05-16T01:29:11.442Z,3.60
2023-05-16T01:31:42.688Z,4.22
2023-05-16T01:34:12.924Z,4.63
2023-05-16T01:37:23.121Z,4.38
2023-05-16T01:40:01.693Z,4.40
2023-05-16T01:42:38.101Z,3.10
2023-05-16T01:45:19.646Z,3.47
2023-05-16T01:48:00.747Z,4.00
2023-05-16T01:50:38.395Z,3.92
2023-05-16T01:53:12.817Z,3.33
2023-05-16T01:55:51.168Z,4.10
2023-05-16T01:58:26.706Z,4.43
2023-05-16T02:03:34.075Z,4.30
2023-05-16T02:06:04.340Z,4.03
2023-05-16T02:11:04.371Z,3.90
2023-05-16T02:13:34.837Z,4.13
2023-05-16T02:16:07.728Z,4.40
2023-05-16T02:18:38.304Z,4.32
2023-05-16T02:21:09.323Z,4.07
2023-05-16T02:23:40.265Z,4.00
2023-05-16T02:26:10.846Z,4.05
2023-05-16T02:28:40.590Z,3.70
2023-05-16T02:31:10.751Z,3.33
2023-05-16T02:33:40.960Z,3.47
2023-05-16T02:36:12.856Z,4.28
2023-05-16T02:38:46.880Z,3.67
2023-05-16T02:41:18.526Z,3.55
2023-05-16T02:43:48.533Z,3.85
2023-05-16T02:46:29.940Z,3.72
2023-05-16T02:49:03.332Z,3.75
2023-05-16T02:51:33.221Z,3.72
2023-05-16T02:56:33.290Z,3.88
2023-05-16T02:59:06.018Z,3.22
2023-05-16T03:01:37.141Z,4.15
2023-05-16T03:04:08.059Z,3.53
2023-05-16T03:06:39.246Z,3.80
2023-05-16T03:09:10.028Z,4.10
2023-05-16T03:11:41.335Z,3.30
2023-05-16T03:14:11.079Z,3.20
2023-05-16T03:16:42.788Z,4.05
2023-05-16T03:19:15.254Z,3.20
2023-05-16T03:21:45.904Z,3.05
2023-05-16T03:24:16.164Z,4.28
2023-05-16T03:26:46.636Z,3.72
2023-05-16T03:29:18.145Z,3.40
2023-05-16T03:31:48.424Z,4.50
2023-05-16T03:34:18.719Z,4.00
2023-05-16T03:39:19.469Z,4.43
2023-05-16T03:41:50.129Z,4.55
2023-05-16T03:44:21.559Z,4.25
2023-05-16T03:46:52.558Z,4.10
2023-05-16T03:49:25.550Z,4.50
2023-05-16T03:51:56.746Z,4.15
2023-05-16T03:54:27.668Z,3.83
2023-05-16T03:56:57.783Z,4.00
2023-05-16T04:01:57.474Z,4.25
2023-05-16T04:04:27.730Z,4.57
2023-05-16T04:06:58.260Z,4.85
2023-05-16T04:09:28.033Z,3.70
2023-05-16T04:11:58.596Z,4.03
2023-05-16T04:14:28.387Z,4.57
2023-05-16T04:17:00.307Z,3.97
2023-05-16T04:19:30.309Z,4.47
2023-05-16T04:22:00.052Z,4.22
2023-05-16T04:24:30.259Z,4.15
2023-05-16T04:27:00.063Z,4.13
2023-05-16T04:29:31.087Z,4.00
2023-05-16T04:32:02.727Z,5.13
2023-05-16T04:34:35.443Z,4.40
2023-05-16T04:37:08.853Z,3.58
2023-05-16T04:39:39.339Z,4.50
2023-05-16T04:42:13.251Z,4.82
2023-05-16T04:44:43.433Z,4.55
2023-05-16T04:49:45.330Z,4.28
2023-05-16T04:52:16.312Z,4.43
2023-05-16T04:54:47.268Z,4.22
2023-05-16T04:57:17.377Z,4.22
2023-05-16T04:59:47.322Z,4.78
2023-05-16T05:02:17.294Z,4.90
2023-05-16T05:04:48.079Z,3.83
2023-05-16T05:07:19.653Z,4.78
2023-05-16T05:09:49.676Z,4.63
2023-05-16T05:12:19.989Z,5.40
2023-05-16T05:14:51.126Z,4.28
2023-05-16T05:17:22.936Z,4.40
2023-05-16T05:19:53.264Z,4.35
2023-05-16T05:22:23.085Z,4.47
2023-05-16T05:24:53.454Z,3.85
2023-05-16T05:27:24.001Z,4.68
2023-05-16T05:29:55.628Z,4.15
2023-05-16T05:32:25.795Z,4.90
2023-05-16T05:34:55.555Z,4.80
2023-05-16T05:37:26.631Z,5.90
2023-05-16T05:39:57.699Z,4.60
2023-05-16T05:42:30.031Z,3.88
2023-05-16T05:44:59.903Z,4.70
2023-05-16T05:47:29.715Z,4.13
2023-05-16T05:50:00.629Z,3.95
2023-05-16T05:52:31.555Z,5.72
2023-05-16T05:55:03.751Z,4.63
2023-05-16T05:57:33.781Z,5.03
2023-05-16T06:00:05.355Z,5.20
2023-05-16T06:02:38.937Z,4.82
2023-05-16T06:05:11.588Z,3.95
2023-05-16T06:07:41.850Z,3.88
2023-05-16T06:10:11.822Z,4.72
2023-05-16T06:12:42.536Z,4.70
2023-05-16T06:15:13.188Z,5.15
2023-05-16T06:17:43.640Z,5.22
2023-05-16T06:20:13.811Z,5.05
2023-05-16T06:22:44.282Z,4.95
2023-05-16T06:27:52.771Z,4.70
2023-05-16T06:30:22.713Z,4.65
2023-05-16T06:35:22.962Z,3.97
2023-05-16T06:37:54.320Z,3.97
2023-05-16T06:40:24.705Z,4.82
2023-05-16T06:42:54.529Z,5.00
2023-05-16T06:45:25.275Z,5.13
2023-05-16T06:47:57.427Z,5.50
2023-05-16T06:50:28.305Z,4.80
2023-05-16T06:52:59.471Z,5.00
2023-05-16T06:55:30.070Z,5.13
2023-05-16T06:58:00.691Z,5.28
2023-05-16T07:03:03.123Z,4.70
2023-05-16T07:05:33.478Z,5.75
2023-05-16T07:08:06.275Z,5.13
2023-05-16T07:10:38.914Z,4.55
2023-05-16T07:13:10.174Z,4.55
2023-05-16T07:15:40.294Z,4.88
2023-05-16T07:20:41.222Z,3.97
2023-05-16T07:23:12.087Z,4.57
2023-05-16T07:25:44.134Z,4.03
2023-05-16T07:28:14.314Z,4.10
2023-05-16T07:30:44.362Z,4.30
2023-05-16T07:33:14.339Z,4.97
2023-05-16T07:38:15.860Z,4.13
2023-05-16T07:40:46.306Z,5.32
2023-05-16T07:43:16.466Z,4.68
2023-05-16T07:48:17.392Z,5.05
2023-05-16T07:50:47.820Z,4.60
2023-05-16T07:55:47.708Z,5.70
2023-05-16T07:58:18.212Z,5.57
2023-05-16T08:00:49.085Z,5.43
2023-05-16T08:03:18.917Z,6.43
2023-05-16T08:05:50.294Z,6.32
2023-05-16T08:08:20.900Z,6.63
2023-05-16T08:10:52.239Z,5.85
2023-05-16T08:13:22.292Z,5.85
2023-05-16T08:15:53.098Z,5.68
2023-05-16T08:18:23.696Z,5.47
2023-05-16T08:20:56.582Z,5.78
2023-05-16T08:23:27.060Z,5.45
2023-05-16T08:25:57.077Z,5.75
2023-05-16T08:28:28.000Z,4.30
2023-05-16T08:33:30.052Z,4.53
2023-05-16T08:36:01.250Z,6.00
2023-05-16T08:38:31.370Z,5.40
2023-05-16T08:41:01.907Z,5.20
2023-05-16T08:43:41.435Z,5.15
2023-05-16T08:46:15.234Z,4.72
2023-05-16T08:48:48.763Z,4.38
2023-05-16T08:51:22.548Z,4.80
2023-05-16T08:54:05.655Z,4.93
2023-05-16T08:56:37.282Z,5.32
2023-05-16T08:59:08.121Z,6.35
2023-05-16T09:01:37.988Z,6.10
2023-05-16T09:04:10.739Z,6.22
2023-05-16T09:06:44.350Z,4.85
2023-05-16T09:09:14.795Z,6.03
2023-05-16T09:11:44.915Z,4.93
2023-05-16T09:14:22.415Z,5.45
2023-05-16T09:17:12.727Z,6.07
2023-05-16T09:19:46.572Z,5.28
2023-05-16T09:22:17.487Z,5.13
2023-05-16T09:24:48.097Z,5.35
2023-05-16T09:27:18.519Z,4.75
2023-05-16T09:29:53.586Z,5.47
2023-05-16T09:32:23.780Z,6.03
2023-05-16T09:34:55.772Z,6.32
2023-05-16T09:37:26.727Z,5.80
2023-05-16T09:39:57.103Z,6.10
2023-05-16T09:42:27.384Z,6.47
2023-05-16T09:44:58.308Z,6.28
2023-05-16T09:47:30.675Z,6.20
2023-05-16T09:50:03.051Z,6.15
2023-05-16T09:52:33.257Z,5.68
2023-05-16T09:57:43.539Z,5.43
2023-05-16T10:00:15.278Z,5.50
2023-05-16T10:02:46.202Z,5.93
2023-05-16T10:05:17.973Z,5.57
2023-05-16T10:07:49.040Z,5.68
2023-05-16T10:10:22.082Z,5.85
2023-05-16T10:12:53.700Z,6.72
2023-05-16T10:15:24.673Z,4.68
2023-05-16T10:18:00.995Z,6.00
2023-05-16T10:20:31.552Z,5.15
2023-05-16T10:23:01.724Z,5.70
2023-05-16T10:25:39.912Z,5.10
2023-05-16T10:28:14.506Z,5.72
2023-05-16T10:30:49.891Z,5.75
2023-05-16T10:33:21.602Z,7.10
2023-05-16T10:35:52.551Z,8.68
2023-05-16T10:38:25.875Z,7.35
2023-05-16T10:40:56.615Z,7.68
2023-05-16T10:43:28.098Z,9.35
2023-05-16T10:46:14.364Z,7.47
2023-05-16T10:48:45.361Z,6.80
2023-05-16T10:51:24.498Z,7.95
2023-05-16T10:53:55.699Z,7.63
2023-05-16T10:56:28.434Z,6.70
2023-05-16T10:58:58.853Z,6.25
2023-05-16T11:01:35.802Z,6.45
2023-05-16T11:04:11.537Z,5.90
2023-05-16T11:06:44.657Z,6.35
2023-05-16T11:09:15.477Z,5.55
2023-05-16T11:11:54.121Z,7.00
2023-05-16T11:14:25.733Z,8.02
2023-05-16T11:17:14.086Z,5.32
2023-05-16T11:19:53.090Z,4.97
2023-05-16T11:22:27.550Z,11.30
2023-05-16T11:25:06.570Z,4.60
2023-05-16T11:27:48.542Z,5.40
2023-05-16T11:30:21.085Z,5.40
2023-05-16T11:32:53.033Z,4.15
2023-05-16T11:35:23.530Z,5.30
2023-05-16T11:37:54.244Z,4.00
2023-05-16T11:40:24.820Z,3.50
2023-05-16T11:42:54.614Z,3.75
2023-05-16T11:45:26.777Z,4.78
2023-05-16T11:48:03.271Z,3.55
2023-05-16T11:50:44.137Z,2.70
2023-05-16T11:53:15.490Z,3.40
2023-05-16T11:55:48.370Z,3.00
2023-05-16T11:58:22.944Z,3.03
2023-05-16T12:00:54.178Z,3.63
2023-05-16T12:03:28.061Z,4.35
2023-05-16T12:05:58.998Z,3.80
2023-05-16T12:08:28.921Z,3.22
2023-05-16T12:11:00.138Z,3.15
2023-05-16T12:13:31.130Z,3.40
2023-05-16T12:16:02.720Z,3.00
2023-05-16T12:18:33.495Z,2.88
2023-05-16T12:21:03.652Z,3.13
2023-05-16T12:23:38.973Z,4.07
2023-05-16T12:26:10.597Z,2.60
2023-05-16T12:28:40.938Z,8.02
2023-05-16T12:31:31.216Z,2.92
2023-05-16T12:34:03.897Z,3.08
2023-05-16T12:36:36.630Z,3.03
2023-05-16T12:39:08.157Z,2.67
2023-05-16T12:41:43.793Z,3.38
2023-05-16T12:44:19.525Z,3.25
2023-05-16T12:46:53.213Z,3.40
2023-05-16T12:49:28.910Z,3.58
2023-05-16T12:52:06.744Z,4.25
2023-05-16T12:54:38.247Z,3.33
2023-05-16T12:57:11.312Z,3.10
2023-05-16T12:59:41.697Z,2.70
2023-05-16T13:02:11.549Z,3.40
2023-05-16T13:04:43.034Z,2.92
2023-05-16T13:07:14.155Z,2.95
2023-05-16T13:09:44.249Z,3.25
2023-05-16T13:12:15.295Z,4.20
2023-05-16T13:14:46.568Z,3.10
2023-05-16T13:17:17.754Z,2.47
2023-05-16T13:19:49.063Z,3.00
2023-05-16T13:22:19.269Z,3.15
2023-05-16T13:24:49.527Z,3.58
2023-05-16T13:27:21.447Z,3.03
2023-05-16T13:29:51.438Z,2.78
2023-05-16T13:32:21.288Z,2.72
2023-05-16T13:34:54.496Z,2.28
2023-05-16T13:37:27.912Z,2.75
2023-05-16T13:39:58.148Z,2.80
2023-05-16T13:42:28.081Z,2.30
2023-05-16T13:44:59.928Z,2.15
2023-05-16T13:47:31.316Z,1.83
2023-05-16T13:50:07.243Z,2.40
2023-05-16T13:52:39.094Z,1.90
2023-05-16T13:55:10.916Z,2.10
2023-05-16T13:57:41.876Z,2.10
2023-05-16T14:00:35.308Z,2.22
2023-05-16T14:03:05.736Z,2.20
2023-05-16T14:05:36.390Z,1.90
2023-05-16T14:08:07.874Z,2.08
2023-05-16T14:10:37.827Z,1.90
2023-05-16T14:13:07.690Z,2.35
2023-05-16T14:15:38.923Z,1.58
2023-05-16T14:18:09.706Z,1.80
2023-05-16T14:20:39.875Z,1.50
2023-05-16T14:23:11.099Z,1.80
2023-05-16T14:25:42.401Z,1.88
2023-05-16T14:28:13.018Z,1.58
2023-05-16T14:30:44.576Z,1.60
2023-05-16T14:33:16.044Z,3.10
2023-05-16T14:35:47.124Z,1.80
2023-05-16T14:38:18.642Z,1.80
2023-05-16T14:40:49.094Z,1.70
2023-05-16T14:43:19.618Z,1.50
2023-05-16T14:45:51.106Z,2.35
2023-05-16T14:48:22.207Z,2.13
2023-05-16T14:50:53.817Z,1.30
2023-05-16T14:53:24.097Z,1.40
2023-05-16T14:55:54.197Z,1.42
2023-05-16T14:58:25.399Z,1.38
2023-05-16T15:00:56.803Z,1.52
2023-05-16T15:03:26.854Z,1.23
2023-05-16T15:05:58.957Z,1.40
2023-05-16T15:08:29.617Z,1.98
2023-05-16T15:11:00.280Z,1.75
2023-05-16T15:13:31.631Z,1.50
2023-05-16T15:16:01.667Z,1.40
2023-05-16T15:18:32.395Z,1.30
2023-05-16T15:21:03.319Z,1.00
2023-05-16T15:23:34.689Z,1.00
2023-05-16T15:26:05.315Z,1.00
2023-05-16T15:28:36.667Z,1.25
2023-05-16T15:31:07.330Z,1.10
2023-05-16T15:33:37.899Z,1.02
2023-05-16T15:36:08.568Z,1.13
2023-05-16T15:38:38.704Z,1.10
2023-05-16T15:41:22.283Z,0.95
2023-05-16T15:44:01.046Z,1.05
2023-05-16T15:46:33.913Z,1.00
2023-05-16T15:49:05.955Z,1.15
2023-05-16T15:51:36.486Z,0.90
2023-05-16T15:54:08.215Z,1.40
2023-05-16T15:56:38.935Z,1.27
2023-05-16T15:59:10.329Z,1.20
2023-05-16T16:01:42.389Z,1.17
2023-05-16T16:04:12.675Z,1.10
2023-05-16T16:06:42.528Z,1.58
2023-05-16T16:09:17.017Z,1.50
2023-05-16T16:11:47.784Z,1.30
2023-05-16T16:14:21.494Z,1.70
2023-05-16T16:16:52.138Z,1.13
2023-05-16T16:19:23.968Z,1.10
2023-05-16T16:21:55.008Z,1.90
2023-05-16T16:24:25.884Z,1.58
2023-05-16T16:26:56.138Z,1.50
2023-05-16T16:29:27.632Z,1.20
2023-05-16T16:31:58.449Z,1.20
2023-05-16T16:34:29.468Z,1.50
2023-05-16T16:36:59.651Z,1.65
2023-05-16T16:39:32.226Z,1.30
2023-05-16T16:42:04.684Z,1.23
2023-05-16T16:44:34.789Z,1.38
2023-05-16T16:47:04.716Z,1.90
2023-05-16T16:49:35.480Z,1.00
2023-05-16T16:52:05.820Z,1.38
2023-05-16T16:54:35.851Z,1.20
2023-05-16T16:57:06.506Z,1.15
2023-05-16T16:59:38.048Z,1.55
2023-05-16T17:02:08.909Z,1.10
2023-05-16T17:04:39.507Z,1.40
2023-05-16T17:07:09.748Z,1.33
2023-05-16T17:09:43.847Z,1.20
2023-05-16T17:12:20.353Z,1.08
2023-05-16T17:14:52.870Z,1.02
2023-05-16T17:17:23.344Z,1.00
2023-05-16T17:19:53.910Z,1.20
2023-05-16T17:22:24.448Z,1.08
2023-05-16T17:24:55.218Z,1.13
2023-05-16T17:27:25.963Z,1.30
2023-05-16T17:29:56.489Z,1.33
2023-05-16T17:32:28.227Z,1.70
2023-05-16T17:35:01.466Z,1.30
2023-05-16T17:37:32.264Z,1.10
2023-05-16T17:40:02.664Z,1.30
2023-05-16T17:42:34.194Z,1.30
2023-05-16T17:45:05.993Z,1.25
2023-05-16T17:47:36.559Z,1.08
2023-05-16T17:50:09.360Z,1.10
2023-05-16T17:52:41.498Z,1.52
2023-05-16T17:55:12.850Z,1.42
2023-05-16T17:57:44.183Z,1.42
2023-05-16T18:00:16.139Z,1.10
2023-05-16T18:02:46.470Z,1.27
2023-05-16T18:05:17.877Z,1.00
2023-05-16T18:07:48.971Z,1.08
2023-05-16T18:10:19.590Z,1.42
2023-05-16T18:12:49.435Z,1.30
2023-05-16T18:15:20.507Z,1.10
2023-05-16T18:17:51.515Z,1.15
2023-05-16T18:20:22.174Z,1.10
2023-05-16T18:22:53.171Z,1.60
2023-05-16T18:25:24.542Z,1.13
2023-05-16T18:27:55.500Z,1.75
2023-05-16T18:30:26.223Z,1.50
2023-05-16T18:32:56.697Z,1.25
2023-05-16T18:35:28.890Z,1.75
2023-05-16T18:37:59.835Z,1.45
2023-05-16T18:40:31.544Z,1.30
2023-05-16T18:43:01.746Z,1.35
2023-05-16T18:45:33.249Z,1.42
2023-05-16T18:48:05.546Z,1.58
2023-05-16T18:50:37.702Z,1.48
2023-05-16T18:53:07.838Z,1.38
2023-05-16T18:55:38.445Z,1.40
2023-05-16T18:58:09.486Z,1.38
2023-05-16T19:00:40.299Z,1.38
2023-05-16T19:03:10.969Z,2.03
2023-05-16T19:05:43.389Z,1.70
2023-05-16T19:08:14.878Z,1.45
2023-05-16T19:10:45.652Z,1.50
2023-05-16T19:13:15.799Z,1.42
2023-05-16T19:15:48.334Z,1.58
2023-05-16T19:18:21.380Z,1.45
2023-05-16T19:20:53.742Z,1.58
2023-05-16T19:23:24.843Z,1.52
2023-05-16T19:25:56.776Z,1.83
2023-05-16T19:28:28.129Z,1.52
2023-05-16T19:30:59.585Z,2.22
2023-05-16T19:33:30.157Z,1.70
2023-05-16T19:36:03.360Z,1.30
2023-05-16T19:38:34.565Z,1.20
2023-05-16T19:41:04.441Z,1.45
2023-05-16T19:43:35.309Z,1.42
2023-05-16T19:46:06.644Z,1.25
2023-05-16T19:48:37.664Z,1.75
2023-05-16T19:51:07.941Z,1.33
2023-05-16T19:53:41.191Z,1.50
2023-05-16T19:56:12.527Z,1.38
2023-05-16T19:58:44.970Z,1.40
2023-05-16T20:01:15.269Z,1.52
2023-05-16T20:03:45.130Z,1.30
2023-05-16T20:06:16.105Z,1.67
2023-05-16T20:08:47.557Z,1.60
2023-05-16T20:11:17.890Z,1.52
2023-05-16T20:13:47.684Z,1.42
2023-05-16T20:16:20.761Z,1.58
2023-05-16T20:18:51.992Z,1.38
2023-05-16T20:21:22.651Z,1.75
2023-05-16T20:23:53.130Z,2.05
2023-05-16T20:26:24.476Z,1.35
2023-05-16T20:28:55.057Z,1.52
2023-05-16T20:31:25.662Z,1.33
2023-05-16T20:33:56.468Z,1.70
2023-05-16T20:36:26.700Z,1.50
2023-05-16T20:38:57.507Z,1.50
2023-05-16T20:41:27.953Z,1.85
2023-05-16T20:43:59.012Z,1.23
2023-05-16T20:46:29.203Z,1.20
2023-05-16T20:48:59.848Z,1.40
2023-05-16T20:51:30.104Z,1.35
2023-05-16T20:54:00.425Z,1.40
2023-05-16T20:56:32.153Z,1.23
2023-05-16T20:59:05.995Z,1.77
2023-05-16T21:01:37.727Z,0.90
2023-05-16T21:04:08.022Z,1.02
2023-05-16T21:06:37.953Z,0.73
2023-05-16T21:09:08.808Z,1.52
2023-05-16T21:11:39.343Z,1.00
2023-05-16T21:14:10.937Z,1.20
2023-05-16T21:16:40.881Z,1.33
2023-05-16T21:19:10.784Z,1.17
2023-05-16T21:21:41.707Z,0.90
2023-05-16T21:24:12.198Z,1.35
2023-05-16T21:26:43.470Z,1.00
2023-05-16T21:29:13.734Z,1.65
2023-05-16T21:31:43.573Z,1.48
2023-05-16T21:34:14.883Z,1.42
2023-05-16T21:36:45.996Z,1.08
2023-05-16T21:39:16.200Z,1.05
2023-05-16T21:41:45.992Z,1.05
2023-05-16T21:44:18.476Z,1.27
2023-05-16T21:46:50.253Z,1.75
2023-05-16T21:49:21.775Z,1.17
2023-05-16T21:51:52.147Z,1.70
2023-05-16T21:54:21.924Z,1.00
2023-05-16T21:56:52.837Z,1.50
2023-05-16T21:59:23.105Z,1.60
2023-05-16T22:01:55.875Z,1.65
2023-05-16T22:04:26.107Z,1.35
2023-05-16T22:06:55.964Z,1.38
2023-05-16T22:09:26.548Z,2.13
2023-05-16T22:11:56.872Z,1.40
2023-05-16T22:14:27.760Z,1.80
2023-05-16T22:16:57.532Z,1.58
2023-05-16T22:19:28.730Z,1.30
2023-05-16T22:22:00.569Z,1.60
2023-05-16T22:24:32.572Z,1.55
2023-05-16T22:27:04.551Z,1.90
2023-05-16T22:29:39.116Z,1.20
2023-05-16T22:32:11.679Z,1.63
2023-05-16T22:34:42.752Z,1.15
2023-05-16T22:37:14.451Z,1.15
2023-05-16T22:39:44.537Z,1.95
2023-05-16T22:42:14.310Z,1.60
2023-05-16T22:44:45.637Z,1.67
2023-05-16T22:47:17.051Z,1.23
2023-05-16T22:49:47.442Z,2.28
2023-05-16T22:52:17.247Z,1.75
2023-05-16T22:54:47.401Z,1.73
2023-05-16T22:57:18.019Z,1.70
2023-05-16T22:59:50.430Z,2.15
2023-05-16T23:02:20.640Z,3.30
2023-05-16T23:04:50.447Z,2.55
2023-05-16T23:07:20.767Z,2.08
2023-05-16T23:09:53.316Z,2.35
2023-05-16T23:12:23.986Z,2.70
2023-05-16T23:14:54.092Z,2.58
2023-05-16T23:17:24.438Z,3.13
2023-05-16T23:19:55.054Z,2.05
2023-05-16T23:22:26.044Z,1.58
2023-05-16T23:24:57.062Z,1.95
2023-05-16T23:27:27.099Z,1.70
2023-05-16T23:29:57.200Z,2.95
2023-05-16T23:32:27.780Z,2.97
2023-05-16T23:34:59.174Z,4.30
2023-05-16T23:37:32.207Z,3.90
2023-05-16T23:40:02.871Z,2.75
2023-05-16T23:42:34.459Z,2.40
2023-05-16T23:45:06.332Z,1.98
2023-05-16T23:47:42.221Z,2.65
2023-05-16T23:52:45.390Z,2.00
2023-05-16T23:55:17.998Z,1.50
2023-05-16T23:57:50.809Z,1.73
